Time;durP1;ratioP1;P1;durP2;ratioP2;P2;SDS_P1;SDS_P2;PMS_P1;PMS_P2;Temp;Humidity;BMP_temperature;BMP_pressure;BME280_temperature;BME280_humidity;BME280_pressure;Samples;Min_cycle;Max_cycle;Signal;HPM_P1;HPM_P2
2022/05/12 00:01:25;;;;;;;5.30;1.63;;;14.30;99.90;;;;;;4987119;28;20571;-75
2022/05/12 00:03:52;;;;;;;6.67;1.77;;;13.30;99.90;;;;;;4969215;28;20238;-77
2022/05/12 00:06:19;;;;;;;3.93;1.63;;;13.10;99.90;;;;;;4988470;28;20206;-76
2022/05/12 00:08:46;;;;;;;7.50;2.40;;;13.20;99.90;;;;;;4970505;28;20269;-76
2022/05/12 00:11:12;;;;;;;6.97;1.70;;;13.20;99.90;;;;;;4987389;28;20242;-76
2022/05/12 00:13:39;;;;;;;6.40;1.60;;;12.90;99.90;;;;;;4987919;28;20242;-74
2022/05/12 00:16:06;;;;;;;7.33;2.00;;;13.10;99.90;;;;;;4992035;28;20209;-75
2022/05/12 00:18:33;;;;;;;5.63;1.80;;;13.00;99.90;;;;;;4991033;28;20213;-76
2022/05/12 00:21:00;;;;;;;5.10;1.70;;;13.00;99.90;;;;;;4972244;28;20210;-77
2022/05/12 00:23:28;;;;;;;3.23;1.80;;;12.90;99.90;;;;;;4991574;28;20213;-77
2022/05/12 00:25:56;;;;;;;5.47;1.60;;;12.90;99.90;;;;;;4990968;28;20702;-76
2022/05/12 00:28:25;;;;;;;7.97;2.30;;;12.80;99.90;;;;;;4990665;28;20214;-76
2022/05/12 00:30:56;;;;;;;8.17;2.10;;;12.80;99.90;;;;;;4989075;28;20214;-77
2022/05/12 00:33:26;;;;;;;3.27;1.43;;;12.80;99.90;;;;;;4974558;28;20304;-75
2022/05/12 00:35:56;;;;;;;5.27;1.60;;;12.70;99.90;;;;;;4991815;28;20738;-77
2022/05/12 00:38:24;;;;;;;3.90;2.00;;;12.60;99.90;;;;;;4991254;28;20210;-76
2022/05/12 00:40:51;;;;;;;4.37;1.70;;;12.60;99.90;;;;;;4991442;28;20744;-78
2022/05/12 00:43:46;;;;;;;4.70;2.00;;;12.50;99.90;;;;;;4988283;28;20332;-75
2022/05/12 00:46:14;;;;;;;3.93;1.80;;;12.50;99.90;;;;;;4988868;28;20557;-76
2022/05/12 00:48:42;;;;;;;9.20;2.87;;;12.40;99.90;;;;;;4989797;28;20610;-76
2022/05/12 00:51:12;;;;;;;3.93;1.67;;;12.30;99.90;;;;;;4990200;28;20239;-76
2022/05/12 00:53:39;;;;;;;8.40;1.70;;;12.30;99.90;;;;;;4987347;28;20311;-77
2022/05/12 00:56:11;;;;;;;6.00;2.00;;;12.30;99.90;;;;;;4991729;28;20220;-77
2022/05/12 00:58:39;;;;;;;4.60;2.17;;;12.00;99.90;;;;;;4973304;28;20241;-76
2022/05/12 01:01:08;;;;;;;8.00;2.10;;;12.90;99.90;;;;;;4990784;28;20216;-77
2022/05/12 01:03:39;;;;;;;7.90;2.50;;;12.10;99.90;;;;;;4989739;28;20328;-78
2022/05/12 01:06:08;;;;;;;9.57;2.77;;;12.10;99.90;;;;;;4990705;28;20203;-76
2022/05/12 01:08:35;;;;;;;8.17;2.67;;;12.10;99.90;;;;;;4990710;28;20209;-77
2022/05/12 01:11:08;;;;;;;7.80;2.80;;;12.00;99.90;;;;;;4973790;28;20264;-77
2022/05/12 01:13:36;;;;;;;10.20;2.50;;;12.00;99.90;;;;;;4989023;28;20235;-77
2022/05/12 01:16:05;;;;;;;7.50;2.77;;;11.90;99.90;;;;;;4990946;28;20208;-77
2022/05/12 01:18:36;;;;;;;6.00;2.80;;;11.90;99.90;;;;;;4988426;28;20208;-76
2022/05/12 01:21:03;;;;;;;10.33;2.57;;;11.90;99.90;;;;;;4989087;28;20222;-77
2022/05/12 01:23:33;;;;;;;5.77;2.47;;;11.90;99.90;;;;;;4989367;28;20208;-76
2022/05/12 01:26:09;;;;;;;14.20;2.97;;;11.80;99.90;;;;;;4989865;28;20215;-76
2022/05/12 01:28:37;;;;;;;8.90;2.77;;;11.80;99.90;;;;;;4989540;28;20211;-75
2022/05/12 01:31:04;;;;;;;13.20;2.77;;;11.80;99.90;;;;;;4990802;28;20619;-77
2022/05/12 01:33:31;;;;;;;7.23;2.40;;;11.80;99.90;;;;;;4988614;28;20246;-76
2022/05/12 01:35:59;;;;;;;8.10;1.93;;;11.90;99.90;;;;;;4988015;28;20647;-76
2022/05/12 01:38:26;;;;;;;8.47;2.87;;;11.70;99.90;;;;;;4989527;28;20208;-76
2022/05/12 01:40:52;;;;;;;10.23;3.23;;;11.70;99.90;;;;;;4990299;28;20219;-77
2022/05/12 01:43:20;;;;;;;7.27;2.13;;;11.60;99.90;;;;;;4990003;28;20324;-76
2022/05/12 01:45:47;;;;;;;10.30;2.50;;;12.20;99.90;;;;;;4990501;28;20215;-76
2022/05/12 01:48:15;;;;;;;7.27;2.23;;;11.60;99.90;;;;;;4987536;28;20549;-76
2022/05/12 01:50:44;;;;;;;10.63;2.77;;;12.00;99.90;;;;;;4988252;28;20243;-76
2022/05/12 01:53:13;;;;;;;14.33;2.87;;;11.20;99.90;;;;;;4972059;28;20228;-77
2022/05/12 01:55:43;;;;;;;9.37;2.43;;;11.60;99.90;;;;;;4985286;28;20215;-76
2022/05/12 01:58:10;;;;;;;6.53;2.70;;;11.50;99.90;;;;;;4987799;28;20204;-76
2022/05/12 02:00:38;;;;;;;9.87;2.70;;;11.60;99.90;;;;;;4988477;28;20212;-76
2022/05/12 02:03:05;;;;;;;11.63;3.20;;;11.50;99.90;;;;;;4989398;28;20216;-76
2022/05/12 02:05:35;;;;;;;14.53;2.80;;;11.40;99.90;;;;;;4988406;28;20236;-76
2022/05/12 02:08:02;;;;;;;15.80;3.30;;;11.40;99.90;;;;;;4988993;28;20196;-76
2022/05/12 02:10:32;;;;;;;9.67;3.37;;;11.60;99.90;;;;;;4988408;28;20224;-76
2022/05/12 02:12:59;;;;;;;7.43;3.43;;;11.30;99.90;;;;;;4988479;28;20208;-75
2022/05/12 02:15:26;;;;;;;9.73;2.80;;;11.30;99.90;;;;;;4990105;28;20277;-77
2022/05/12 02:17:53;;;;;;;11.43;2.70;;;11.30;99.90;;;;;;4988696;28;20290;-76
2022/05/12 02:20:21;;;;;;;9.27;3.00;;;11.30;99.90;;;;;;4988174;28;20270;-76
2022/05/12 02:22:49;;;;;;;10.50;3.10;;;11.50;99.90;;;;;;4987042;28;20210;-76
2022/05/12 02:25:17;;;;;;;12.63;3.47;;;11.20;99.90;;;;;;4988204;28;20682;-75
2022/05/12 02:27:47;;;;;;;11.07;3.33;;;11.10;99.90;;;;;;4988258;28;20325;-76
2022/05/12 02:30:20;;;;;;;11.07;2.90;;;11.30;99.90;;;;;;4989771;28;20745;-76
2022/05/12 02:32:46;;;;;;;12.53;3.90;;;11.10;99.90;;;;;;4986884;28;20211;-76
2022/05/12 02:35:15;;;;;;;12.53;3.43;;;11.10;99.90;;;;;;4989425;28;20234;-76
2022/05/12 02:37:42;;;;;;;10.73;3.30;;;11.40;99.90;;;;;;4970295;28;20215;-76
2022/05/12 02:40:11;;;;;;;14.20;3.80;;;11.10;99.90;;;;;;4972541;28;20691;-77
2022/05/12 02:42:38;;;;;;;18.57;5.53;;;11.10;99.90;;;;;;4987240;28;20211;-76
2022/05/12 02:45:06;;;;;;;11.07;4.33;;;11.10;99.90;;;;;;4986922;28;20561;-76
2022/05/12 02:47:35;;;;;;;9.43;3.23;;;11.00;99.90;;;;;;4988709;28;20214;-76
2022/05/12 02:50:03;;;;;;;17.20;4.30;;;11.00;99.90;;;;;;4988292;28;20420;-76
2022/05/12 02:52:30;;;;;;;12.33;3.93;;;11.10;99.90;;;;;;4988576;28;20321;-76
2022/05/12 02:54:56;;;;;;;16.43;4.17;;;11.00;99.90;;;;;;4987045;28;20246;-75
2022/05/12 02:57:23;;;;;;;13.27;3.90;;;11.10;99.90;;;;;;4987738;28;20209;-77
2022/05/12 02:59:50;;;;;;;8.90;4.40;;;11.10;99.90;;;;;;4970679;28;20277;-76
2022/05/12 03:02:18;;;;;;;17.43;4.70;;;11.00;99.90;;;;;;4988499;28;20215;-75
2022/05/12 03:04:46;;;;;;;12.00;4.13;;;11.10;99.90;;;;;;4987455;28;20251;-77
2022/05/12 03:07:13;;;;;;;13.87;4.47;;;10.90;99.90;;;;;;4986840;28;20279;-77
2022/05/12 03:09:40;;;;;;;12.17;4.57;;;11.00;99.90;;;;;;4988154;28;20230;-76
2022/05/12 03:12:07;;;;;;;16.30;4.93;;;10.80;99.90;;;;;;4986729;28;20267;-78
2022/05/12 03:14:34;;;;;;;15.47;4.63;;;10.90;99.90;;;;;;4987781;28;20233;-76
2022/05/12 03:17:01;;;;;;;14.60;4.70;;;10.80;99.90;;;;;;4987969;28;20211;-75
2022/05/12 03:19:28;;;;;;;12.60;4.90;;;10.80;99.90;;;;;;4969181;28;20203;-75
2022/05/12 03:21:55;;;;;;;14.70;5.10;;;10.80;99.90;;;;;;4986535;28;20281;-77
2022/05/12 03:24:22;;;;;;;9.33;4.50;;;10.80;99.90;;;;;;4986947;28;20233;-76
2022/05/12 03:26:49;;;;;;;12.00;4.47;;;10.80;99.90;;;;;;4986389;28;20219;-76
2022/05/12 03:29:16;;;;;;;8.23;4.20;;;10.90;99.90;;;;;;4987751;28;20613;-76
2022/05/12 03:31:44;;;;;;;15.53;5.23;;;10.80;99.90;;;;;;4988737;28;20209;-77
2022/05/12 03:34:11;;;;;;;14.30;4.77;;;10.70;99.90;;;;;;4987425;28;20230;-77
2022/05/12 03:36:39;;;;;;;11.87;4.93;;;10.80;99.90;;;;;;4985523;28;20211;-76
2022/05/12 03:39:07;;;;;;;17.70;5.23;;;10.70;99.90;;;;;;4987589;28;20217;-75
2022/05/12 03:41:35;;;;;;;17.00;6.07;;;10.70;99.90;;;;;;4988511;28;20317;-76
2022/05/12 03:46:47;;;;;;;10.20;5.03;;;10.80;99.90;;;;;;4988219;28;20827;-76
2022/05/12 03:49:14;;;;;;;16.57;6.87;;;10.70;99.90;;;;;;4969515;28;20207;-75
2022/05/12 03:51:41;;;;;;;12.50;6.17;;;10.60;99.90;;;;;;4970179;28;20674;-77
2022/05/12 03:54:08;;;;;;;16.93;5.90;;;10.70;99.90;;;;;;4988061;28;20243;-77
2022/05/12 03:56:35;;;;;;;25.00;7.37;;;10.60;99.90;;;;;;4985966;28;20201;-77
2022/05/12 03:59:04;;;;;;;18.27;6.53;;;10.50;99.90;;;;;;4969827;28;20211;-76
2022/05/12 04:01:31;;;;;;;23.17;8.60;;;10.70;99.90;;;;;;4987071;28;20225;-76
2022/05/12 04:03:58;;;;;;;20.07;7.97;;;10.80;99.90;;;;;;4985961;28;20202;-77
2022/05/12 04:06:26;;;;;;;20.53;8.50;;;10.70;99.90;;;;;;4987862;28;20212;-76
2022/05/12 04:08:52;;;;;;;21.07;9.60;;;10.70;99.90;;;;;;4986931;28;20218;-77
2022/05/12 04:11:19;;;;;;;22.73;10.23;;;10.80;99.90;;;;;;4986710;28;20273;-75
2022/05/12 04:13:46;;;;;;;23.10;10.27;;;10.70;99.90;;;;;;4986972;28;20227;-76
2022/05/12 04:16:16;;;;;;;22.60;11.20;;;10.70;99.90;;;;;;4988341;28;20586;-76
2022/05/12 04:18:42;;;;;;;26.40;11.93;;;10.90;99.90;;;;;;4984270;28;20265;-75
2022/05/12 04:21:09;;;;;;;24.80;11.33;;;10.70;99.90;;;;;;4982731;28;20736;-75
2022/05/12 04:23:36;;;;;;;23.87;11.37;;;10.80;99.90;;;;;;4987685;28;20210;-76
2022/05/12 04:26:03;;;;;;;24.30;12.07;;;10.80;99.90;;;;;;4987465;28;20227;-76
2022/05/12 04:28:30;;;;;;;26.00;13.83;;;10.80;99.90;;;;;;4987086;28;20614;-76
2022/05/12 04:30:58;;;;;;;27.10;12.90;;;10.90;99.90;;;;;;4986799;28;20261;-76
2022/05/12 04:36:10;;;;;;;28.57;13.10;;;10.90;99.90;;;;;;4987662;28;20691;-76
2022/05/12 04:38:37;;;;;;;25.73;12.73;;;10.90;99.90;;;;;;4969176;28;20734;-74
2022/05/12 04:41:04;;;;;;;30.93;12.80;;;11.00;99.90;;;;;;4986048;28;21000;-76
2022/05/12 04:43:31;;;;;;;28.00;13.57;;;11.00;99.90;;;;;;4985885;28;20671;-75
2022/05/12 04:45:58;;;;;;;21.63;12.43;;;11.00;99.90;;;;;;4987034;28;20211;-75
2022/05/12 04:48:26;;;;;;;33.53;14.20;;;11.00;99.90;;;;;;4987603;28;20302;-76
2022/05/12 04:50:53;;;;;;;29.73;13.63;;;11.00;99.90;;;;;;4983121;28;20746;-75
2022/05/12 04:53:20;;;;;;;30.73;13.67;;;11.00;99.90;;;;;;4986719;28;20262;-74
2022/05/12 04:55:47;;;;;;;27.70;13.63;;;11.00;99.90;;;;;;4985017;28;20587;-77
2022/05/12 04:58:14;;;;;;;25.87;13.13;;;11.10;99.90;;;;;;4985667;28;20215;-76
2022/05/12 05:00:43;;;;;;;26.20;14.40;;;11.20;99.90;;;;;;4985368;28;20203;-76
2022/05/12 05:03:11;;;;;;;26.87;14.83;;;11.20;99.90;;;;;;4987591;28;20203;-78
2022/05/12 05:05:45;;;;;;;25.63;14.83;;;11.30;99.90;;;;;;4988472;28;20203;-77
2022/05/12 05:08:14;;;;;;;28.57;16.17;;;11.30;99.90;;;;;;4986847;28;20192;-76
2022/05/12 05:10:41;;;;;;;29.13;16.87;;;11.30;99.90;;;;;;4990664;28;20750;-77
2022/05/12 05:13:08;;;;;;;28.50;16.40;;;11.40;99.90;;;;;;4988754;28;20210;-77
2022/05/12 05:15:35;;;;;;;27.07;14.97;;;11.40;99.90;;;;;;4987660;28;20318;-78
2022/05/12 05:18:12;;;;;;;26.60;15.27;;;11.50;99.90;;;;;;4991159;28;20212;-78
2022/05/12 05:20:39;;;;;;;26.30;13.93;;;11.60;99.90;;;;;;4972257;28;20663;-76
2022/05/12 05:23:06;;;;;;;23.13;13.53;;;11.60;99.90;;;;;;4988778;28;20665;-77
2022/05/12 05:25:34;;;;;;;22.67;13.60;;;11.70;99.90;;;;;;4990340;28;20603;-76
2022/05/12 05:28:00;;;;;;;21.43;12.40;;;11.80;99.90;;;;;;4989705;28;20707;-77
2022/05/12 05:30:28;;;;;;;18.77;12.53;;;11.80;99.90;;;;;;4989395;28;20262;-77
2022/05/12 05:32:55;;;;;;;20.23;12.10;;;11.80;99.90;;;;;;4989723;28;20304;-78
2022/05/12 05:35:22;;;;;;;17.67;11.70;;;11.70;99.90;;;;;;4988735;28;20236;-77
2022/05/12 05:37:53;;;;;;;16.37;11.17;;;11.90;99.90;;;;;;4989268;28;20577;-76
2022/05/12 05:40:23;;;;;;;16.63;11.53;;;12.00;99.90;;;;;;4990004;28;20278;-76
2022/05/12 05:42:50;;;;;;;22.10;11.60;;;12.00;99.90;;;;;;4971726;28;20205;-77
2022/05/12 05:45:19;;;;;;;14.10;10.47;;;12.20;99.90;;;;;;4988933;28;20541;-76
2022/05/12 05:47:49;;;;;;;15.10;8.57;;;12.80;99.90;;;;;;4988319;28;20257;-76
2022/05/12 05:50:20;;;;;;;13.13;7.77;;;13.80;99.90;;;;;;4987369;28;20778;-76
2022/05/12 05:55:33;;;;;;;11.50;6.50;;;16.60;99.90;;;;;;4988772;28;20230;-78
2022/05/12 05:58:01;;;;;;;9.40;5.90;;;;;;;;;;4986679;28;20204;-77
2022/05/12 06:00:31;;;;;;;11.05;5.80;;;18.00;99.90;;;;;;4990211;28;20580;-76
2022/05/12 06:02:58;;;;;;;8.57;5.90;;;18.70;99.90;;;;;;4989442;28;20261;-76
2022/05/12 06:05:27;;;;;;;8.30;5.90;;;19.30;99.90;;;;;;4987269;28;20261;-76
2022/05/12 06:07:55;;;;;;;7.53;5.03;;;20.00;99.90;;;;;;4988809;28;20210;-76
2022/05/12 06:10:22;;;;;;;7.05;4.72;;;20.70;99.90;;;;;;4988652;28;20252;-76
2022/05/12 06:12:49;;;;;;;8.90;4.43;;;21.40;99.90;;;;;;4984980;28;20676;-76
2022/05/12 06:15:16;;;;;;;6.95;4.65;;;21.80;99.90;;;;;;4984802;28;20762;-76
2022/05/12 06:17:43;;;;;;;9.52;4.13;;;22.40;99.90;;;;;;4967877;28;20207;-77
2022/05/12 06:20:11;;;;;;;6.47;4.22;;;22.60;99.90;;;;;;4986928;28;20214;-76
2022/05/12 06:22:39;;;;;;;8.85;4.35;;;22.80;99.90;;;;;;4986697;28;20215;-76
2022/05/12 06:25:09;;;;;;;7.63;4.10;;;23.20;99.90;;;;;;4987138;28;20326;-78
2022/05/12 06:27:36;;;;;;;11.10;5.03;;;23.70;99.90;;;;;;4993727;28;20265;-76
2022/05/12 06:30:07;;;;;;;7.38;4.05;;;24.30;99.90;;;;;;4990562;28;20659;-77
2022/05/12 06:32:34;;;;;;;6.50;4.18;;;24.00;99.90;;;;;;4987690;28;20214;-77
2022/05/12 06:35:01;;;;;;;7.22;4.60;;;24.10;99.90;;;;;;4991407;28;20234;-77
2022/05/12 06:37:28;;;;;;;9.07;4.75;;;24.20;99.90;;;;;;4989432;28;20218;-76
2022/05/12 06:39:55;;;;;;;9.35;4.05;;;23.30;99.90;;;;;;4985699;28;20231;-76
2022/05/12 06:42:22;;;;;;;8.15;3.75;;;23.50;99.90;;;;;;4988874;28;20203;-77
2022/05/12 06:44:50;;;;;;;12.80;4.63;;;23.70;99.90;;;;;;4987595;28;20202;-76
2022/05/12 06:47:17;;;;;;;7.95;4.28;;;23.60;99.90;;;;;;4984181;28;20203;-76
2022/05/12 06:49:50;;;;;;;9.55;4.18;;;23.60;99.90;;;;;;4985384;28;20257;-76
2022/05/12 06:52:17;;;;;;;6.05;3.70;;;23.50;99.90;;;;;;4983261;28;20258;-76
2022/05/12 06:54:44;;;;;;;9.98;4.07;;;23.60;99.90;;;;;;4970380;28;20227;-77
2022/05/12 06:57:12;;;;;;;7.38;3.58;;;23.90;99.90;;;;;;4988891;28;20214;-76
2022/05/12 06:59:40;;;;;;;5.20;3.80;;;24.20;99.90;;;;;;4982352;28;20210;-76
2022/05/12 07:02:08;;;;;;;7.88;3.60;;;24.20;99.90;;;;;;4986484;28;20926;-76
2022/05/12 07:04:34;;;;;;;6.20;3.42;;;24.50;99.90;;;;;;4987157;28;20215;-75
2022/05/12 07:07:02;;;;;;;5.55;3.45;;;24.50;99.90;;;;;;4969465;28;20198;-75
2022/05/12 07:09:30;;;;;;;6.30;3.45;;;24.60;99.90;;;;;;4983645;28;20257;-74
2022/05/12 07:11:57;;;;;;;7.50;4.07;;;24.70;99.40;;;;;;4985984;28;20242;-74
2022/05/12 07:14:24;;;;;;;7.05;3.53;;;25.10;99.10;;;;;;4989436;28;20212;-76
2022/05/12 07:16:51;;;;;;;5.50;3.40;;;25.20;97.90;;;;;;4969688;28;20370;-76
2022/05/12 07:19:18;;;;;;;7.70;3.95;;;25.40;97.00;;;;;;4988088;28;20258;-75
2022/05/12 07:27:17;;;;;;;4.20;3.17;;;25.80;95.60;;;;;;4982411;28;20211;-76
2022/05/12 07:29:45;;;;;;;6.03;3.53;;;25.80;94.90;;;;;;4988064;28;20709;-77
2022/05/12 07:32:13;;;;;;;6.13;3.13;;;25.80;94.30;;;;;;4987667;28;20211;-77
2022/05/12 07:34:40;;;;;;;4.45;3.05;;;25.60;94.40;;;;;;4986203;28;20235;-77
2022/05/12 07:37:07;;;;;;;6.78;3.13;;;25.60;93.30;;;;;;4986796;28;20717;-77
2022/05/12 07:39:35;;;;;;;7.50;3.30;;;25.70;92.70;;;;;;4984915;28;20274;-76
2022/05/12 07:42:04;;;;;;;6.38;2.83;;;25.70;92.20;;;;;;4984675;28;20242;-77
2022/05/12 07:44:34;;;;;;;6.53;2.47;;;25.70;92.50;;;;;;4981324;28;20222;-77
2022/05/12 07:47:11;;;;;;;7.72;2.75;;;25.50;91.90;;;;;;4983105;28;20207;-76
2022/05/12 07:49:38;;;;;;;4.97;2.05;;;25.40;91.50;;;;;;4985647;28;20968;-77
2022/05/12 07:52:06;;;;;;;5.80;2.92;;;25.20;90.80;;;;;;4985055;28;20254;-77
2022/05/12 07:54:34;;;;;;;5.28;2.45;;;24.90;90.80;;;;;;4985332;28;20219;-79
2022/05/12 07:57:01;;;;;;;4.43;2.10;;;24.90;91.30;;;;;;4986967;28;20617;-76
2022/05/12 07:59:29;;;;;;;7.38;2.20;;;25.00;90.70;;;;;;4984644;28;20257;-77
2022/05/12 08:01:58;;;;;;;6.85;2.33;;;25.10;90.10;;;;;;4982967;28;20207;-77
2022/05/12 08:04:26;;;;;;;4.50;2.47;;;25.40;89.10;;;;;;4985088;28;20211;-76
2022/05/12 08:06:54;;;;;;;3.53;2.00;;;25.50;87.80;;;;;;4983761;28;20626;-78
2022/05/12 08:09:21;;;;;;;6.55;2.50;;;25.50;87.90;;;;;;4988027;28;20220;-77
2022/05/12 08:11:48;;;;;;;8.57;2.92;;;25.70;87.50;;;;;;4987314;28;20210;-77
2022/05/12 08:14:15;;;;;;;5.53;2.22;;;25.70;86.00;;;;;;4970007;28;20207;-77
2022/05/12 08:16:42;;;;;;;3.55;1.83;;;25.50;84.60;;;;;;4987347;28;20234;-76
2022/05/12 08:19:09;;;;;;;6.10;2.30;;;25.60;84.70;;;;;;4987424;28;20207;-77
2022/05/12 08:21:36;;;;;;;5.88;1.90;;;25.40;82.50;;;;;;4988131;28;20780;-79
2022/05/12 08:24:03;;;;;;;6.03;2.08;;;25.10;82.70;;;;;;4970701;28;20222;-79
2022/05/12 08:26:31;;;;;;;7.97;2.33;;;24.90;82.70;;;;;;4988172;28;20253;-77
2022/05/12 08:28:58;;;;;;;4.60;2.17;;;24.70;82.40;;;;;;4988793;28;20223;-78
2022/05/12 08:31:29;;;;;;;5.95;2.20;;;24.50;82.40;;;;;;4990220;28;21048;-78
2022/05/12 08:33:58;;;;;;;4.22;1.80;;;24.20;83.00;;;;;;4990292;28;20634;-79
2022/05/12 08:36:27;;;;;;;3.92;1.90;;;24.20;83.20;;;;;;4993233;28;20318;-80
2022/05/12 08:38:55;;;;;;;4.90;1.63;;;24.00;82.80;;;;;;4992617;28;20229;-78
2022/05/12 08:41:30;;;;;;;5.68;2.30;;;24.10;82.10;;;;;;4995579;28;20212;-78
2022/05/12 08:44:01;;;;;;;4.60;1.88;;;23.90;81.50;;;;;;4984446;28;20233;-78
2022/05/12 08:46:39;;;;;;;5.60;2.15;;;24.00;80.30;;;;;;4990183;28;20219;-79
2022/05/12 08:49:50;;;;;;;6.10;1.77;;;24.10;80.20;;;;;;4991438;28;20708;-78
2022/05/12 08:52:40;;;;;;;3.88;1.60;;;24.10;81.70;;;;;;4958184;28;20218;-77
2022/05/12 08:55:09;;;;;;;6.18;2.08;;;24.10;80.30;;;;;;4987770;28;20240;-78
2022/05/12 08:57:54;;;;;;;5.35;1.95;;;23.80;81.00;;;;;;4991001;28;20797;-77
2022/05/12 09:00:21;;;;;;;3.38;1.92;;;23.60;81.80;;;;;;4989839;28;20218;-78
2022/05/12 09:03:25;;;;;;;5.15;1.98;;;23.50;81.60;;;;;;4973743;28;20211;-78
2022/05/12 09:06:12;;;;;;;5.95;2.10;;;23.80;80.10;;;;;;4989686;28;20214;-77
2022/05/12 09:08:52;;;;;;;7.70;2.63;;;23.90;80.00;;;;;;4973051;28;20221;-80
2022/05/12 09:11:43;;;;;;;7.05;2.10;;;23.90;80.60;;;;;;4987865;28;20286;-78
2022/05/12 09:14:16;;;;;;;5.93;2.53;;;23.90;81.10;;;;;;4987561;28;20734;-79
2022/05/12 09:16:45;;;;;;;3.75;1.95;;;23.90;81.40;;;;;;4991158;28;20639;-78
2022/05/12 09:19:15;;;;;;;6.25;2.10;;;24.10;81.10;;;;;;4990755;28;20218;-79
2022/05/12 09:21:42;;;;;;;5.30;2.28;;;24.40;80.20;;;;;;4991528;28;20702;-77
2022/05/12 09:24:09;;;;;;;5.95;2.10;;;24.20;80.10;;;;;;4990809;28;20231;-78
2022/05/12 09:26:44;;;;;;;5.20;2.00;;;24.40;80.70;;;;;;4990416;28;20211;-79
2022/05/12 09:29:33;;;;;;;4.20;2.10;;;24.50;80.00;;;;;;4990740;28;20309;-80
2022/05/12 09:32:02;;;;;;;4.85;2.00;;;24.40;78.30;;;;;;4988597;28;20239;-80
2022/05/12 09:34:39;;;;;;;3.33;2.03;;;24.20;78.00;;;;;;4989065;28;20218;-79
2022/05/12 09:37:26;;;;;;;3.20;1.40;;;24.10;79.00;;;;;;4990996;28;20239;-78
2022/05/12 09:39:55;;;;;;;3.17;1.67;;;24.30;78.50;;;;;;4990210;28;20227;-80
2022/05/12 09:42:28;;;;;;;2.90;1.40;;;24.20;77.20;;;;;;4991053;28;20548;-80
2022/05/12 09:44:57;;;;;;;4.55;1.83;;;24.00;76.60;;;;;;4986726;28;20653;-80
2022/05/12 09:47:25;;;;;;;4.30;2.00;;;23.70;78.20;;;;;;4992136;28;20211;-79
2022/05/12 09:50:19;;;;;;;4.60;2.05;;;23.80;79.30;;;;;;4991054;28;20258;-81
2022/05/12 09:52:58;;;;;;;3.53;1.88;;;23.60;79.60;;;;;;4987415;28;20257;-79
2022/05/12 09:55:31;;;;;;;3.22;1.67;;;23.60;79.60;;;;;;4990469;28;20231;-81
2022/05/12 09:58:04;;;;;;;6.72;1.88;;;23.70;79.10;;;;;;4990080;28;20274;-80
2022/05/12 10:00:39;;;;;;;4.97;1.40;;;23.70;75.30;;;;;;4986605;28;20563;-79
2022/05/12 10:09:14;;;;;;;4.00;1.42;;;24.00;74.30;;;;;;4988921;28;20207;-80
2022/05/12 10:12:02;;;;;;;3.88;1.58;;;24.10;75.00;;;;;;4990035;28;20582;-82
2022/05/12 10:14:48;;;;;;;5.68;1.75;;;24.10;74.70;;;;;;4971305;28;20214;-82
2022/05/12 10:17:20;;;;;;;4.30;1.77;;;24.00;75.10;;;;;;4989959;28;20300;-80
2022/05/12 10:19:47;;;;;;;2.58;1.42;;;23.90;74.60;;;;;;4990935;28;20207;-81
2022/05/12 10:22:18;;;;;;;2.50;1.52;;;24.00;74.80;;;;;;4991716;28;20222;-78
2022/05/12 10:25:06;;;;;;;3.60;1.50;;;24.00;73.90;;;;;;4991629;28;20576;-79
2022/05/12 10:27:46;;;;;;;3.50;1.23;;;23.90;72.30;;;;;;4983982;28;20203;-79
2022/05/12 10:30:24;;;;;;;3.92;1.40;;;23.60;72.60;;;;;;4988755;28;20545;-79
2022/05/12 10:33:04;;;;;;;3.33;1.70;;;23.60;74.20;;;;;;4988041;28;20207;-80
2022/05/12 10:35:49;;;;;;;3.13;1.70;;;23.50;73.80;;;;;;4986746;28;20231;-79
2022/05/12 10:38:40;;;;;;;2.85;1.40;;;23.50;74.60;;;;;;4989284;28;20242;-81
2022/05/12 10:41:25;;;;;;;3.83;1.88;;;23.50;73.10;;;;;;4988375;28;20238;-81
2022/05/12 10:44:31;;;;;;;5.30;1.70;;;23.40;73.80;;;;;;4988656;28;20666;-78
2022/05/12 10:47:12;;;;;;;5.22;1.80;;;23.30;72.20;;;;;;4983677;28;20214;-78
2022/05/12 10:50:03;;;;;;;4.75;1.63;;;23.10;74.30;;;;;;4989015;28;20210;-80
2022/05/12 10:52:46;;;;;;;4.35;1.35;;;;;;;;;;4984732;28;20215;-81
2022/05/12 10:55:44;;;;;;;4.35;1.50;;;22.40;74.90;;;;;;4981627;28;20675;-79
2022/05/12 10:58:29;;;;;;;3.15;1.20;;;22.40;75.60;;;;;;4987230;28;20192;-80
2022/05/12 11:01:18;;;;;;;2.55;1.10;;;22.20;75.80;;;;;;4986134;28;20216;-79
2022/05/12 11:04:05;;;;;;;2.88;1.25;;;22.30;76.60;;;;;;4986204;28;20396;-81
2022/05/12 11:06:51;;;;;;;4.53;1.50;;;22.40;75.10;;;;;;4986840;28;20211;-80
2022/05/12 11:09:25;;;;;;;3.90;1.10;;;22.70;75.50;;;;;;4983155;28;20226;-80
2022/05/12 11:11:57;;;;;;;1.85;1.20;;;22.90;75.80;;;;;;4986599;28;20230;-79
2022/05/12 11:14:37;;;;;;;2.00;1.10;;;23.20;74.70;;;;;;4987380;28;20203;-80
2022/05/12 11:17:46;;;;;;;4.18;1.30;;;23.30;74.70;;;;;;4987491;28;20633;-80
2022/05/12 11:20:25;;;;;;;3.85;1.73;;;23.30;74.00;;;;;;4977981;28;20203;-80
2022/05/12 11:23:18;;;;;;;2.20;1.38;;;23.10;73.80;;;;;;4987396;28;20199;-78
2022/05/12 11:25:51;;;;;;;2.67;1.42;;;23.20;73.90;;;;;;4988485;28;20215;-79
2022/05/12 11:31:24;;;;;;;2.00;1.10;;;23.60;72.60;;;;;;4988588;28;20349;-79
2022/05/12 11:33:55;;;;;;;1.98;0.98;;;23.80;72.80;;;;;;4987640;28;20229;-79
2022/05/12 11:36:46;;;;;;;3.13;1.30;;;23.90;71.30;;;;;;4987720;28;20605;-79
2022/05/12 11:39:27;;;;;;;3.30;1.45;;;23.90;71.00;;;;;;4985299;28;20239;-80
2022/05/12 11:42:12;;;;;;;2.95;1.48;;;23.80;71.40;;;;;;4988211;28;20769;-79
2022/05/12 11:45:00;;;;;;;3.50;1.35;;;23.50;71.70;;;;;;4987584;28;20233;-80
2022/05/12 11:47:51;;;;;;;3.65;1.25;;;23.40;72.10;;;;;;4988794;28;20254;-79
2022/05/12 11:50:24;;;;;;;3.42;1.40;;;23.20;71.30;;;;;;4989165;28;20322;-81
2022/05/12 11:53:03;;;;;;;5.35;1.30;;;23.30;70.90;;;;;;4995589;28;20203;-81
2022/05/12 11:55:53;;;;;;;3.85;1.30;;;23.50;69.90;;;;;;4988184;28;20222;-78
2022/05/12 11:58:37;;;;;;;3.42;1.33;;;23.40;69.80;;;;;;4969249;28;20234;-80
2022/05/12 12:01:27;;;;;;;5.80;1.70;;;23.30;70.20;;;;;;4986760;28;20218;-81
2022/05/12 12:03:59;;;;;;;4.07;1.40;;;23.00;71.00;;;;;;4952942;28;20203;-80
2022/05/12 12:06:49;;;;;;;4.13;1.50;;;23.10;72.10;;;;;;4970572;28;20200;-80
2022/05/12 12:09:25;;;;;;;5.95;1.35;;;23.30;72.20;;;;;;4987599;28;20254;-81
2022/05/12 12:11:52;;;;;;;2.55;1.35;;;23.60;72.60;;;;;;4991734;28;20210;-80
2022/05/12 12:14:44;;;;;;;2.55;1.10;;;23.80;70.90;;;;;;4986788;28;20596;-80
2022/05/12 12:17:29;;;;;;;4.80;1.40;;;24.00;69.60;;;;;;4991365;28;20326;-80
2022/05/12 12:20:02;;;;;;;2.35;1.35;;;23.80;68.50;;;;;;4986529;28;20200;-81
2022/05/12 12:22:41;;;;;;;4.28;1.30;;;23.70;68.90;;;;;;4989368;28;20211;-80
2022/05/12 12:25:23;;;;;;;2.13;1.20;;;23.70;68.20;;;;;;4990300;28;20219;-80
2022/05/12 12:28:10;;;;;;;2.22;1.20;;;23.50;68.30;;;;;;4989611;28;20211;-80
2022/05/12 12:30:56;;;;;;;3.75;1.27;;;23.50;68.90;;;;;;4991820;28;20257;-80
2022/05/12 12:33:27;;;;;;;4.47;1.73;;;23.50;68.50;;;;;;4986934;28;20219;-80
2022/05/12 12:36:27;;;;;;;2.80;1.40;;;23.50;67.80;;;;;;4992045;28;20199;-80
2022/05/12 12:39:00;;;;;;;2.53;1.48;;;23.40;67.40;;;;;;4988643;28;20215;-80
2022/05/12 12:41:28;;;;;;;3.17;1.25;;;23.10;67.80;;;;;;4991117;28;20254;-81
2022/05/12 12:44:14;;;;;;;5.10;1.70;;;22.90;68.50;;;;;;4991967;28;20969;-80
2022/05/12 12:46:50;;;;;;;4.55;1.50;;;22.90;69.60;;;;;;4990502;28;20211;-80
2022/05/12 12:49:28;;;;;;;4.82;1.40;;;22.60;69.70;;;;;;4975052;28;20224;-81
2022/05/12 12:52:08;;;;;;;5.28;1.63;;;22.90;70.70;;;;;;4990679;28;20258;-85
2022/05/12 12:57:45;;;;;;;3.13;1.85;;;23.10;70.70;;;;;;4990847;28;20222;-80
2022/05/12 13:00:28;;;;;;;7.57;2.20;;;23.20;70.40;;;;;;4987700;28;20207;-79
2022/05/12 13:03:03;;;;;;;6.05;2.15;;;23.10;70.10;;;;;;4990054;28;20211;-82
2022/05/12 13:05:32;;;;;;;4.93;1.50;;;22.90;70.40;;;;;;4989817;28;20575;-82
2022/05/12 13:08:03;;;;;;;2.67;1.73;;;22.80;70.80;;;;;;4992220;28;20222;-81
2022/05/12 13:10:41;;;;;;;4.43;2.03;;;22.70;71.30;;;;;;5003717;28;20226;-83
2022/05/12 13:13:08;;;;;;;6.00;2.25;;;22.50;72.50;;;;;;4988141;28;20206;-82
2022/05/12 13:15:41;;;;;;;5.80;1.80;;;22.30;71.90;;;;;;4989348;28;20203;-83
2022/05/12 13:18:16;;;;;;;3.65;1.48;;;22.10;71.90;;;;;;4974641;28;20227;-81
2022/05/12 13:21:01;;;;;;;2.80;1.50;;;22.10;72.30;;;;;;4991133;28;20238;-80
2022/05/12 13:23:40;;;;;;;5.40;1.77;;;21.70;73.00;;;;;;4992283;28;20297;-80
2022/05/12 13:26:08;;;;;;;4.80;1.85;;;21.70;74.10;;;;;;4992018;28;20215;-81
2022/05/12 13:28:37;;;;;;;4.82;2.00;;;21.70;73.20;;;;;;4998419;28;20199;-81
2022/05/12 13:31:26;;;;;;;4.03;1.75;;;21.80;72.40;;;;;;4988258;28;20212;-80
2022/05/12 13:34:01;;;;;;;4.45;1.98;;;21.90;73.20;;;;;;4989041;28;20538;-79